Aeroporto :
LOGIN :

Iscrizione | Disclaimer

   EN    FR    IT 

 










Sommario :    VFR   VFR Marginale   IFR   IFR Intensivo   IFR Molto Intensivo
Visibilità : 
Base nubi : 
>= 8 km
>= 3000ft
5 / 8 km
1000 / 3000 ft
1500m / 5 km
500 / 1000 ft
800 / 1500m
200 / 500 ft
< 800m
< 200 ft
Simboli :   Temporali  Nebbia  Neve Forte  Precipitazioni Forti  Vento > 20 kt
SIGMETs :   Varie  Temporali  Ghiacco  Turbolenza  Onda orograficha  Ceneri Vulcaniche







- Altitudine del aeroporto : 13 ft
- Codice IATA : LYX
- Carte del aeroporto


EGMD - Lydd

ULTIMO METAR :
  • 162050Z AUTO 22006KT 9999 SCT049/// 14/12 Q1020

METARs OBSOLETI :
  • 162020Z AUTO 23006KT 9999 BKN044/// 15/13 Q1020
  • 161950Z AUTO 23007KT 9999 BKN043/// 15/13 Q1020
  • 161920Z AUTO 23009KT 9999 OVC043/// 16/13 Q1020
  • 161850Z AUTO 24010KT 9999 FEW041/// BKN048/// 16/13 Q1020
  • 161820Z AUTO 24013KT 9999 BKN048/// 16/13 Q1020
  • 161750Z AUTO 24011KT 9999 BKN048/// 17/13 Q1020

TAF TAF EGMD
Valido dal 16 a 21 ore il 17 a 06 ore UTC


162002Z 1621/1706 22009KT 9999 SCT035
ATIS : +44 1797 322 422
Nessun NOTAM noto per questo aeroporto.
1 SIGMET conosciuto per la FIR London (EGTT) :
 
Forte onda orograficha
EGTT SIGMET 01 VALID 162010/162330 EGRR
EGTT LONDON FIR SEV MTW FCST WI N5444 W00114 - N5306 W00010 - N5156 W00445 - N5438 W00305 - N5444 W00114 FL030/180 STNR NC=



MetMap, La meteo Aeronautica in un colpo d'occhio ! - Copyright ORBIFLY Dicembre 2007 - Disclaimer

ORBIFLY MET'MAP TEAM :

Programmazione e sviluppo : Alexandra Zaïnal
Concezione e sviluppo : Baudouin d'Aumeries
Co-Programmazione e sviluppo : Marc-Olivier Méhu
Supporto tecnico e logistico : Manuel Goepfert
Aiuto per la traduzione : Arnaldo La Scala

Contatto : metmap@orbifly.com




FONTI E CREDITI :

   NOAA